createdAt,value
2019-05-22T00:00:08.770Z,1002.76
2019-05-22T00:01:08.783Z,1002.79
2019-05-22T00:02:08.788Z,1002.75
2019-05-22T00:03:08.738Z,1002.70
2019-05-22T00:04:08.725Z,1002.75
2019-05-22T00:05:08.743Z,1002.72
2019-05-22T00:06:08.714Z,1002.72
2019-05-22T00:07:08.747Z,1002.68
2019-05-22T00:08:08.721Z,1002.79
2019-05-22T00:09:08.673Z,1002.74
2019-05-22T00:10:08.665Z,1002.77
2019-05-22T00:11:08.650Z,1002.73
2019-05-22T00:12:08.641Z,1002.79
2019-05-22T00:13:08.640Z,1002.86
2019-05-22T00:14:08.656Z,1002.89
2019-05-22T00:15:08.625Z,1002.90
2019-05-22T00:16:08.606Z,1002.93
2019-05-22T00:17:08.594Z,1002.93
2019-05-22T00:18:08.575Z,1003.00
2019-05-22T00:19:08.618Z,1002.99
2019-05-22T00:20:08.563Z,1003.01
2019-05-22T00:21:08.553Z,1003.02
2019-05-22T00:22:08.534Z,1003.03
2019-05-22T00:23:08.526Z,1003.03
2019-05-22T00:24:08.546Z,1003.05
2019-05-22T00:25:08.515Z,1003.05
2019-05-22T00:26:08.503Z,1003.02
2019-05-22T00:27:08.487Z,1003.04
2019-05-22T00:28:08.486Z,1003.04
2019-05-22T00:29:08.499Z,1003.10
2019-05-22T00:30:08.455Z,1003.09
2019-05-22T00:31:08.440Z,1003.11
2019-05-22T00:32:08.428Z,1003.16
2019-05-22T00:33:08.421Z,1003.15
2019-05-22T00:34:08.466Z,1003.17
2019-05-22T00:35:08.407Z,1003.14
2019-05-22T00:36:08.382Z,1003.15
2019-05-22T00:37:08.391Z,1003.18
2019-05-22T00:38:08.427Z,1003.09
2019-05-22T00:39:08.506Z,1003.14
2019-05-22T00:40:08.460Z,1003.13
2019-05-22T00:41:08.341Z,1003.16
2019-05-22T00:42:08.326Z,1003.20
2019-05-22T00:43:13.905Z,1003.17
2019-05-22T00:44:09.328Z,1003.18
2019-05-22T00:45:08.294Z,1003.18
2019-05-22T00:46:08.286Z,1003.19
2019-05-22T00:47:08.270Z,1003.18
2019-05-22T00:48:08.257Z,1003.25
2019-05-22T00:49:08.301Z,1003.17
2019-05-22T00:50:08.239Z,1003.24
2019-05-22T00:51:08.229Z,1003.28
2019-05-22T00:52:08.227Z,1003.30
2019-05-22T00:53:08.206Z,1003.38
2019-05-22T00:54:08.232Z,1003.30
2019-05-22T00:55:08.210Z,1003.39
2019-05-22T00:56:08.168Z,1003.42
2019-05-22T00:57:08.194Z,1003.39
2019-05-22T00:58:08.154Z,1003.37
2019-05-22T00:59:08.143Z,1003.42
2019-05-22T01:00:08.164Z,1003.40
2019-05-22T01:01:08.114Z,1003.43
2019-05-22T01:02:08.104Z,1003.41
2019-05-22T01:03:08.094Z,1003.41
2019-05-22T01:04:08.083Z,1003.44
2019-05-22T01:05:08.110Z,1003.45
2019-05-22T01:06:08.068Z,1003.46
2019-05-22T01:07:08.049Z,1003.49
2019-05-22T01:08:08.084Z,1003.45
2019-05-22T01:09:08.034Z,1003.48
2019-05-22T01:10:08.715Z,1003.52
2019-05-22T01:11:08.014Z,1003.50
2019-05-22T01:12:08.000Z,1003.49
2019-05-22T01:13:08.030Z,1003.50
2019-05-22T01:14:07.972Z,1003.50
2019-05-22T01:15:07.963Z,1003.47
2019-05-22T01:16:07.983Z,1003.47
2019-05-22T01:17:07.945Z,1003.47
2019-05-22T01:18:07.972Z,1003.51
2019-05-22T01:19:07.925Z,1003.46
2019-05-22T01:20:07.919Z,1003.47
2019-05-22T01:21:07.895Z,1003.45
2019-05-22T01:22:07.887Z,1003.48
2019-05-22T01:23:07.932Z,1003.47
2019-05-22T01:24:07.868Z,1003.48
2019-05-22T01:25:07.865Z,1003.43
2019-05-22T01:26:07.858Z,1003.47
2019-05-22T01:27:07.850Z,1003.42
2019-05-22T01:28:07.849Z,1003.43
2019-05-22T01:29:08.612Z,1003.47
2019-05-22T01:30:07.806Z,1003.51
2019-05-22T01:31:07.796Z,1003.44
2019-05-22T01:32:07.792Z,1003.46
2019-05-22T01:33:07.844Z,1003.51
2019-05-22T01:34:07.756Z,1003.52
2019-05-22T01:35:07.781Z,1003.49
2019-05-22T01:36:07.769Z,1003.49
2019-05-22T01:37:07.728Z,1003.55
2019-05-22T01:38:07.718Z,1003.56
2019-05-22T01:39:07.701Z,1003.58
2019-05-22T01:40:07.722Z,1003.62
2019-05-22T01:41:07.688Z,1003.59
2019-05-22T01:42:07.685Z,1003.60
2019-05-22T01:43:07.673Z,1003.58
2019-05-22T01:44:08.230Z,1003.60
2019-05-22T01:45:07.639Z,1003.63
2019-05-22T01:46:07.649Z,1003.67
2019-05-22T01:47:07.650Z,1003.67
2019-05-22T01:48:07.603Z,1003.67
2019-05-22T01:49:07.602Z,1003.68
2019-05-22T01:50:07.594Z,1003.71
2019-05-22T01:51:07.597Z,1003.66
2019-05-22T01:52:07.568Z,1003.69
2019-05-22T01:53:07.556Z,1003.68
2019-05-22T01:54:07.542Z,1003.72
2019-05-22T01:55:07.539Z,1003.71
2019-05-22T01:56:07.893Z,1003.67
2019-05-22T01:57:07.531Z,1003.67
2019-05-22T01:58:07.496Z,1003.66
2019-05-22T01:59:07.495Z,1003.67
2019-05-22T02:00:07.475Z,1003.66
2019-05-22T02:01:07.503Z,1003.62
2019-05-22T02:02:07.457Z,1003.66
2019-05-22T02:03:07.447Z,1003.64
2019-05-22T02:04:07.473Z,1003.63
2019-05-22T02:05:07.426Z,1003.54
2019-05-22T02:06:07.412Z,1003.59
2019-05-22T02:07:07.440Z,1003.51
2019-05-22T02:08:07.432Z,1003.55
2019-05-22T02:09:07.386Z,1003.59
2019-05-22T02:10:07.378Z,1003.60
2019-05-22T02:11:07.356Z,1003.64
2019-05-22T02:12:07.377Z,1003.59
2019-05-22T02:13:07.337Z,1003.63
2019-05-22T02:14:07.327Z,1003.68
2019-05-22T02:15:07.317Z,1003.72
2019-05-22T02:16:07.308Z,1003.70
2019-05-22T02:17:07.293Z,1003.72
2019-05-22T02:18:07.313Z,1003.74
2019-05-22T02:19:07.278Z,1003.69
2019-05-22T02:20:07.547Z,1003.71
2019-05-22T02:21:07.245Z,1003.72
2019-05-22T02:22:07.239Z,1003.70
2019-05-22T02:23:07.258Z,1003.75
2019-05-22T02:24:07.215Z,1003.67
2019-05-22T02:25:07.243Z,1003.77
2019-05-22T02:26:07.196Z,1003.74
2019-05-22T02:27:07.185Z,1003.78
2019-05-22T02:28:07.225Z,1003.75
2019-05-22T02:29:07.168Z,1003.80
2019-05-22T02:30:07.194Z,1003.72
2019-05-22T02:31:07.161Z,1003.75
2019-05-22T02:32:07.135Z,1003.76
2019-05-22T02:33:07.153Z,1003.77
2019-05-22T02:34:07.112Z,1003.76
2019-05-22T02:35:07.130Z,1003.79
2019-05-22T02:36:07.087Z,1003.79
2019-05-22T02:37:07.083Z,1003.79
2019-05-22T02:38:07.103Z,1003.78
2019-05-22T02:39:07.060Z,1003.78
2019-05-22T02:40:07.047Z,1003.86
2019-05-22T02:41:07.065Z,1003.85
2019-05-22T02:42:07.021Z,1003.84
2019-05-22T02:43:07.049Z,1003.85
2019-05-22T02:44:07.004Z,1003.86
2019-05-22T02:45:06.988Z,1003.84
2019-05-22T02:46:06.981Z,1003.85
2019-05-22T02:47:18.682Z,1003.86
2019-05-22T02:48:07.991Z,1003.83
2019-05-22T02:49:06.950Z,1003.83
2019-05-22T02:50:06.939Z,1003.87
2019-05-22T02:51:06.928Z,1003.87
2019-05-22T02:52:06.951Z,1003.90
2019-05-22T02:53:06.934Z,1003.85
2019-05-22T02:54:06.891Z,1003.87
2019-05-22T02:55:06.888Z,1003.87
2019-05-22T02:56:06.869Z,1003.93
2019-05-22T02:57:06.864Z,1003.90
2019-05-22T02:58:06.891Z,1003.91
2019-05-22T02:59:06.837Z,1003.89
2019-05-22T03:00:06.835Z,1003.92
2019-05-22T03:01:06.821Z,1003.88
2019-05-22T03:02:06.810Z,1003.93
2019-05-22T03:03:06.869Z,1003.99
2019-05-22T03:04:06.787Z,1003.89
2019-05-22T03:05:06.775Z,1003.91
2019-05-22T03:06:06.766Z,1003.93
2019-05-22T03:07:06.750Z,1003.97
2019-05-22T03:08:06.742Z,1003.95
2019-05-22T03:09:06.758Z,1004.01
2019-05-22T03:10:06.724Z,1003.97
2019-05-22T03:11:06.724Z,1004.00
2019-05-22T03:12:06.700Z,1004.03
2019-05-22T03:13:06.692Z,1004.04
2019-05-22T03:14:06.716Z,1004.04
2019-05-22T03:15:06.668Z,1004.08
2019-05-22T03:16:06.671Z,1004.16
2019-05-22T03:17:06.657Z,1004.14
2019-05-22T03:18:06.635Z,1004.14
2019-05-22T03:19:09.209Z,1004.13
2019-05-22T03:20:06.653Z,1004.17
2019-05-22T03:21:06.604Z,1004.16
2019-05-22T03:22:15.347Z,1004.16
2019-05-22T03:23:06.613Z,1004.08
2019-05-22T03:24:15.378Z,1004.14
2019-05-22T03:25:06.599Z,1004.10
2019-05-22T03:26:06.551Z,1004.15
2019-05-22T03:27:06.535Z,1004.08
2019-05-22T03:28:06.522Z,1004.14
2019-05-22T03:29:06.525Z,1004.15
2019-05-22T03:30:06.544Z,1004.13
2019-05-22T03:31:06.521Z,1004.14
2019-05-22T03:32:06.495Z,1004.18
2019-05-22T03:33:06.522Z,1004.17
2019-05-22T03:34:06.496Z,1004.18
2019-05-22T03:35:06.461Z,1004.13
2019-05-22T03:36:06.444Z,1004.15
2019-05-22T03:37:06.427Z,1004.09
2019-05-22T03:38:06.421Z,1004.14
2019-05-22T03:39:06.444Z,1004.16
2019-05-22T03:40:06.396Z,1004.17
2019-05-22T03:41:06.390Z,1004.18
2019-05-22T03:42:06.423Z,1004.18
2019-05-22T03:43:06.370Z,1004.20
2019-05-22T03:44:06.374Z,1004.25
2019-05-22T03:45:06.333Z,1004.24
2019-05-22T03:46:06.324Z,1004.27
2019-05-22T03:47:06.316Z,1004.28
2019-05-22T03:48:06.305Z,1004.27
2019-05-22T03:49:06.331Z,1004.25
2019-05-22T03:50:06.289Z,1004.29
2019-05-22T03:51:06.289Z,1004.30
2019-05-22T03:52:06.265Z,1004.33
2019-05-22T03:53:06.251Z,1004.28
2019-05-22T03:54:06.236Z,1004.31
2019-05-22T03:55:06.270Z,1004.28
2019-05-22T03:56:06.217Z,1004.29
2019-05-22T03:57:06.207Z,1004.30
2019-05-22T03:58:06.199Z,1004.31
2019-05-22T03:59:06.191Z,1004.29
2019-05-22T04:00:06.216Z,1004.33
2019-05-22T04:01:06.205Z,1004.32
2019-05-22T04:02:06.157Z,1004.31
2019-05-22T04:03:06.143Z,1004.33
2019-05-22T04:04:06.137Z,1004.35
2019-05-22T04:05:06.118Z,1004.37
2019-05-22T04:06:06.144Z,1004.35
2019-05-22T04:07:06.101Z,1004.38
2019-05-22T04:08:06.110Z,1004.37
2019-05-22T04:09:06.092Z,1004.34
2019-05-22T04:10:06.071Z,1004.40
2019-05-22T04:11:06.084Z,1004.39
2019-05-22T04:12:06.052Z,1004.44
2019-05-22T04:13:06.041Z,1004.46
2019-05-22T04:14:06.029Z,1004.44
2019-05-22T04:15:06.044Z,1004.44
2019-05-22T04:16:06.035Z,1004.47
2019-05-22T04:17:06.004Z,1004.45
2019-05-22T04:18:05.978Z,1004.45
2019-05-22T04:19:05.973Z,1004.51
2019-05-22T04:20:05.956Z,1004.54
2019-05-22T04:21:05.962Z,1004.56
2019-05-22T04:22:05.972Z,1004.46
2019-05-22T04:23:05.949Z,1004.62
2019-05-22T04:24:05.915Z,1004.50
2019-05-22T04:25:05.916Z,1004.55
2019-05-22T04:26:05.923Z,1004.62
2019-05-22T04:27:05.878Z,1004.60
2019-05-22T04:28:05.867Z,1004.59
2019-05-22T04:29:05.862Z,1004.60
2019-05-22T04:30:05.858Z,1004.58
2019-05-22T04:31:05.869Z,1004.59
2019-05-22T04:32:05.848Z,1004.59
2019-05-22T04:33:05.819Z,1004.67
2019-05-22T04:34:05.807Z,1004.55
2019-05-22T04:35:05.799Z,1004.61
2019-05-22T04:36:09.966Z,1004.64
2019-05-22T04:37:05.801Z,1004.61
2019-05-22T04:38:05.762Z,1004.59
2019-05-22T04:39:05.759Z,1004.63
2019-05-22T04:40:05.738Z,1004.63
2019-05-22T04:41:05.747Z,1004.64
2019-05-22T04:42:05.770Z,1004.63
2019-05-22T04:43:05.721Z,1004.64
2019-05-22T04:44:05.703Z,1004.67
2019-05-22T04:45:05.685Z,1004.70
2019-05-22T04:46:05.674Z,1004.73
2019-05-22T04:47:05.702Z,1004.63
2019-05-22T04:48:05.658Z,1004.63
2019-05-22T04:49:05.642Z,1004.70
2019-05-22T04:50:08.002Z,1004.65
2019-05-22T04:51:05.620Z,1004.67
2019-05-22T04:52:05.646Z,1004.69
2019-05-22T04:53:05.663Z,1004.72
2019-05-22T04:54:05.591Z,1004.75
2019-05-22T04:55:05.583Z,1004.75
2019-05-22T04:56:05.572Z,1004.73
2019-05-22T04:57:05.552Z,1004.75
2019-05-22T04:58:05.578Z,1004.78
2019-05-22T04:59:05.547Z,1004.73
2019-05-22T05:00:05.536Z,1004.80
2019-05-22T05:01:05.518Z,1004.75
2019-05-22T05:02:05.512Z,1004.71
2019-05-22T05:03:05.524Z,1004.77
2019-05-22T05:04:05.482Z,1004.76
2019-05-22T05:05:05.477Z,1004.83
2019-05-22T05:06:06.989Z,1004.81
2019-05-22T05:07:05.453Z,1004.80
2019-05-22T05:08:05.466Z,1004.82
2019-05-22T05:09:05.477Z,1004.82
2019-05-22T05:10:05.439Z,1004.83
2019-05-22T05:11:05.417Z,1004.81
2019-05-22T05:12:05.402Z,1004.84
2019-05-22T05:13:05.429Z,1004.86
2019-05-22T05:14:05.378Z,1004.90
2019-05-22T05:15:05.375Z,1004.87
2019-05-22T05:16:05.365Z,1004.92
2019-05-22T05:17:05.349Z,1004.93
2019-05-22T05:18:05.454Z,1004.99
2019-05-22T05:19:05.328Z,1004.98
2019-05-22T05:20:05.311Z,1004.96
2019-05-22T05:21:05.301Z,1005.00
2019-05-22T05:22:05.288Z,1004.99
2019-05-22T05:23:05.310Z,1005.00
2019-05-22T05:24:05.266Z,1005.00
2019-05-22T05:25:05.283Z,1004.98
2019-05-22T05:26:05.250Z,1004.99
2019-05-22T05:27:05.238Z,1004.97
2019-05-22T05:28:05.226Z,1004.97
2019-05-22T05:29:05.267Z,1004.92
2019-05-22T05:30:05.210Z,1005.03
2019-05-22T05:31:05.190Z,1004.98
2019-05-22T05:32:05.177Z,1004.97
2019-05-22T05:33:05.172Z,1004.99
2019-05-22T05:34:05.216Z,1005.03
2019-05-22T05:35:05.150Z,1004.97
2019-05-22T05:36:05.136Z,1005.02
2019-05-22T05:37:05.130Z,1005.07
2019-05-22T05:38:05.123Z,1005.01
2019-05-22T05:39:05.132Z,1005.05
2019-05-22T05:40:05.106Z,1005.05
2019-05-22T05:41:05.091Z,1005.09
2019-05-22T05:42:05.108Z,1005.00
2019-05-22T05:43:05.066Z,1005.02
2019-05-22T05:44:05.050Z,1005.05
2019-05-22T05:45:05.101Z,1004.98
2019-05-22T05:46:05.041Z,1005.02
2019-05-22T05:47:05.029Z,1005.01
2019-05-22T05:48:05.012Z,1004.95
2019-05-22T05:49:05.004Z,1004.97
2019-05-22T05:50:04.988Z,1004.98
2019-05-22T05:51:05.032Z,1005.00
2019-05-22T05:52:04.971Z,1004.97
2019-05-22T05:53:04.959Z,1004.97
2019-05-22T05:54:04.944Z,1004.97
2019-05-22T05:55:04.935Z,1005.00
2019-05-22T05:56:04.973Z,1004.93
2019-05-22T05:57:04.918Z,1004.96
2019-05-22T05:58:04.907Z,1004.92
2019-05-22T05:59:05.081Z,1004.96
2019-05-22T06:00:04.886Z,1005.00
2019-05-22T06:01:04.875Z,1004.94
2019-05-22T06:02:04.892Z,1005.02
2019-05-22T06:03:04.849Z,1004.97
2019-05-22T06:04:04.840Z,1005.02
2019-05-22T06:05:04.838Z,1005.09
2019-05-22T06:06:04.821Z,1005.00
2019-05-22T06:07:04.879Z,1005.05
2019-05-22T06:08:04.794Z,1004.99
2019-05-22T06:09:04.849Z,1005.02
2019-05-22T06:10:04.821Z,1005.00
2019-05-22T06:11:04.838Z,1004.96
2019-05-22T06:12:05.818Z,1005.05
2019-05-22T06:13:04.742Z,1005.07
2019-05-22T06:14:04.866Z,1005.00
2019-05-22T06:15:04.905Z,1005.05
2019-05-22T06:16:04.804Z,1005.02
2019-05-22T06:17:04.744Z,1005.03
2019-05-22T06:18:04.714Z,1005.12
2019-05-22T06:19:04.685Z,1005.08
2019-05-22T06:20:04.712Z,1005.07
2019-05-22T06:21:04.863Z,1005.07
2019-05-22T06:22:04.645Z,1005.12
2019-05-22T06:23:04.686Z,1005.11
2019-05-22T06:24:04.650Z,1005.08
2019-05-22T06:25:04.835Z,1005.14
2019-05-22T06:26:04.607Z,1005.20
2019-05-22T06:27:04.592Z,1005.22
2019-05-22T06:28:04.605Z,1005.22
2019-05-22T06:29:04.612Z,1005.20
2019-05-22T06:30:04.568Z,1005.27
2019-05-22T06:31:04.557Z,1005.31
2019-05-22T06:32:04.547Z,1005.36
2019-05-22T06:33:04.530Z,1005.44
2019-05-22T06:34:04.521Z,1005.39
2019-05-22T06:35:04.541Z,1005.47
2019-05-22T06:36:04.532Z,1005.45
2019-05-22T06:37:04.497Z,1005.52
2019-05-22T06:38:04.549Z,1005.46
2019-05-22T06:39:04.471Z,1005.61
2019-05-22T06:40:04.459Z,1005.54
2019-05-22T06:41:04.681Z,1005.59
2019-05-22T06:42:04.452Z,1005.55
2019-05-22T06:43:04.430Z,1005.51
2019-05-22T06:44:04.425Z,1005.60
2019-05-22T06:45:05.107Z,1005.62
2019-05-22T06:46:04.424Z,1005.60
2019-05-22T06:47:04.412Z,1005.57
2019-05-22T06:48:04.401Z,1005.60
2019-05-22T06:49:04.365Z,1005.56
2019-05-22T06:50:04.355Z,1005.51
2019-05-22T06:51:18.666Z,1005.50
2019-05-22T06:52:05.333Z,1005.59
2019-05-22T06:53:09.798Z,1005.57
2019-05-22T06:54:05.306Z,1005.59
2019-05-22T06:55:04.358Z,1005.61
2019-05-22T06:56:05.164Z,1005.61
2019-05-22T06:57:04.697Z,1005.50
2019-05-22T06:58:04.440Z,1005.68
2019-05-22T06:59:04.252Z,1005.71
2019-05-22T07:00:14.505Z,1005.70
2019-05-22T07:01:05.275Z,1005.65
2019-05-22T07:02:04.246Z,1005.64
2019-05-22T07:03:04.216Z,1005.78
2019-05-22T07:04:04.204Z,1005.72
2019-05-22T07:05:04.190Z,1005.65
2019-05-22T07:06:04.274Z,1005.76
2019-05-22T07:07:04.316Z,1005.68
2019-05-22T07:08:04.158Z,1005.71
2019-05-22T07:09:04.151Z,1005.75
2019-05-22T07:10:04.144Z,1005.70
2019-05-22T07:11:04.199Z,1005.76
2019-05-22T07:12:04.146Z,1005.80
2019-05-22T07:13:04.112Z,1005.72
2019-05-22T07:14:04.098Z,1005.75
2019-05-22T07:15:04.787Z,1005.77
2019-05-22T07:16:04.075Z,1005.77
2019-05-22T07:17:04.697Z,1005.69
2019-05-22T07:18:04.075Z,1005.72
2019-05-22T07:19:04.048Z,1005.79
2019-05-22T07:20:04.032Z,1005.79
2019-05-22T07:21:04.030Z,1005.78
2019-05-22T07:22:04.008Z,1005.76
2019-05-22T07:23:04.327Z,1005.72
2019-05-22T07:24:03.985Z,1005.77
2019-05-22T07:25:03.982Z,1005.84
2019-05-22T07:26:04.052Z,1005.78
2019-05-22T07:27:03.953Z,1005.79
2019-05-22T07:28:03.979Z,1005.74
2019-05-22T07:29:05.209Z,1005.84
2019-05-22T07:30:04.134Z,1005.75
2019-05-22T07:31:03.924Z,1005.78
2019-05-22T07:32:03.917Z,1005.81
2019-05-22T07:33:03.892Z,1005.77
2019-05-22T07:34:03.915Z,1005.80
2019-05-22T07:35:03.868Z,1005.87
2019-05-22T07:36:15.915Z,1005.82
2019-05-22T07:37:04.850Z,1005.84
2019-05-22T07:38:03.840Z,1005.86
2019-05-22T07:39:03.876Z,1005.80
2019-05-22T07:40:03.821Z,1005.74
2019-05-22T07:41:03.817Z,1005.89
2019-05-22T07:42:03.824Z,1005.80
2019-05-22T07:43:03.805Z,1005.88
2019-05-22T07:44:03.877Z,1005.77
2019-05-22T07:45:03.764Z,1005.91
2019-05-22T07:46:03.766Z,1005.86
2019-05-22T07:47:03.794Z,1005.91
2019-05-22T07:48:03.777Z,1005.82
2019-05-22T07:49:03.759Z,1005.77
2019-05-22T07:50:03.718Z,1005.85
2019-05-22T07:51:03.703Z,1005.90
2019-05-22T07:52:03.695Z,1005.89
2019-05-22T07:53:03.674Z,1005.84
2019-05-22T07:54:03.698Z,1005.93
2019-05-22T07:55:03.688Z,1005.97
2019-05-22T07:56:03.647Z,1005.91
2019-05-22T07:57:03.638Z,1006.11
2019-05-22T07:58:03.627Z,1006.06
2019-05-22T07:59:03.645Z,1006.08
2019-05-22T08:00:03.603Z,1006.07
2019-05-22T08:01:03.631Z,1006.10
2019-05-22T08:02:03.820Z,1006.14
2019-05-22T08:03:03.575Z,1006.19
2019-05-22T08:04:03.610Z,1006.17
2019-05-22T08:05:03.613Z,1006.22
2019-05-22T08:06:03.581Z,1006.20
2019-05-22T08:07:03.531Z,1006.21
2019-05-22T08:08:03.520Z,1006.22
2019-05-22T08:09:03.513Z,1006.24
2019-05-22T08:10:03.538Z,1006.18
2019-05-22T08:11:03.527Z,1006.16
2019-05-22T08:12:03.479Z,1006.15
2019-05-22T08:13:03.510Z,1006.19
2019-05-22T08:14:03.459Z,1006.15
2019-05-22T08:15:03.633Z,1006.16
2019-05-22T08:16:03.440Z,1006.18
2019-05-22T08:17:03.457Z,1006.22
2019-05-22T08:18:03.411Z,1006.15
2019-05-22T08:19:03.404Z,1006.20
2019-05-22T08:20:03.422Z,1006.18
2019-05-22T08:21:03.515Z,1006.23
2019-05-22T08:22:07.399Z,1006.17
2019-05-22T08:23:03.365Z,1006.23
2019-05-22T08:24:03.465Z,1006.21
2019-05-22T08:25:03.337Z,1006.28
2019-05-22T08:26:03.332Z,1006.24
2019-05-22T08:27:03.489Z,1006.25
2019-05-22T08:28:03.316Z,1006.26
2019-05-22T08:29:56.880Z,1006.23
2019-05-22T08:30:54.619Z,1006.31
2019-05-22T08:31:54.660Z,1006.32
2019-05-22T08:32:54.597Z,1006.38
2019-05-22T08:33:54.586Z,1006.34
2019-05-22T08:34:54.582Z,1006.32
2019-05-22T08:35:54.594Z,1006.32
2019-05-22T08:36:54.592Z,1006.36
2019-05-22T08:37:54.556Z,1006.29
2019-05-22T08:38:54.546Z,1006.32
2019-05-22T08:39:54.517Z,1006.39
2019-05-22T08:40:54.506Z,1006.32
2019-05-22T08:41:54.530Z,1006.28
2019-05-22T08:42:54.495Z,1006.32
2019-05-22T08:44:14.515Z,1006.28
2019-05-22T08:44:55.469Z,1006.38
2019-05-22T08:45:54.460Z,1006.32
2019-05-22T08:46:54.445Z,1006.35
2019-05-22T08:47:54.466Z,1006.32
2019-05-22T08:48:54.420Z,1006.33
2019-05-22T08:49:54.428Z,1006.30
2019-05-22T08:50:54.553Z,1006.34
2019-05-22T08:51:54.393Z,1006.35
2019-05-22T08:52:54.416Z,1006.34
2019-05-22T08:53:54.374Z,1006.42
2019-05-22T08:54:54.368Z,1006.33
2019-05-22T08:55:54.355Z,1006.38
2019-05-22T08:56:54.375Z,1006.39
2019-05-22T08:57:54.364Z,1006.37
2019-05-22T08:58:54.325Z,1006.31
2019-05-22T08:59:54.352Z,1006.32
2019-05-22T09:00:54.296Z,1006.32
2019-05-22T09:01:54.282Z,1006.38
2019-05-22T09:02:54.311Z,1006.37
2019-05-22T09:03:54.269Z,1006.40
2019-05-22T09:04:54.256Z,1006.42
2019-05-22T09:05:54.248Z,1006.45
2019-05-22T09:06:54.228Z,1006.47
2019-05-22T09:07:54.259Z,1006.45
2019-05-22T09:08:54.215Z,1006.48
2019-05-22T09:09:54.215Z,1006.50
2019-05-22T09:10:54.196Z,1006.54
2019-05-22T09:11:54.185Z,1006.59
2019-05-22T09:12:54.182Z,1006.54
2019-05-22T09:13:54.199Z,1006.56
2019-05-22T09:14:54.158Z,1006.60
2019-05-22T09:15:54.151Z,1006.56
2019-05-22T09:16:54.159Z,1006.53
2019-05-22T09:17:54.153Z,1006.67
2019-05-22T09:18:54.100Z,1006.55
2019-05-22T09:19:54.091Z,1006.61
2019-05-22T09:20:54.082Z,1006.70
2019-05-22T09:21:54.106Z,1006.64
2019-05-22T09:22:54.064Z,1006.64
2019-05-22T09:23:54.084Z,1006.67
2019-05-22T09:24:54.046Z,1006.72
2019-05-22T09:25:54.026Z,1006.75
2019-05-22T09:26:54.024Z,1006.70
2019-05-22T09:27:54.010Z,1006.69
2019-05-22T09:28:54.031Z,1006.81
2019-05-22T09:29:53.989Z,1006.77
2019-05-22T09:30:53.991Z,1006.75
2019-05-22T09:31:53.963Z,1006.78
2019-05-22T09:32:53.950Z,1006.77
2019-05-22T09:33:53.978Z,1006.78
2019-05-22T09:34:53.950Z,1006.87
2019-05-22T09:35:53.926Z,1006.87
2019-05-22T09:36:53.917Z,1006.84
2019-05-22T09:37:53.938Z,1006.81
2019-05-22T09:38:53.887Z,1006.88
2019-05-22T09:39:53.875Z,1006.87
2019-05-22T09:40:53.872Z,1006.87
2019-05-22T09:41:53.868Z,1006.81
2019-05-22T09:42:53.876Z,1006.82
2019-05-22T09:43:53.833Z,1006.83
2019-05-22T09:44:53.828Z,1006.76
2019-05-22T09:45:53.813Z,1006.75
2019-05-22T09:46:53.812Z,1006.78
2019-05-22T09:47:53.813Z,1006.83
2019-05-22T09:48:53.785Z,1006.83
2019-05-22T09:49:53.776Z,1006.73
2019-05-22T09:50:53.757Z,1006.84
2019-05-22T09:51:53.752Z,1006.77
2019-05-22T09:52:57.622Z,1006.82
2019-05-22T09:53:53.745Z,1006.88
2019-05-22T09:54:53.717Z,1006.85
2019-05-22T09:55:53.708Z,1006.83
2019-05-22T09:56:53.694Z,1006.87
2019-05-22T09:57:53.685Z,1006.87
2019-05-22T09:58:53.715Z,1006.84
2019-05-22T09:59:53.661Z,1006.88
2019-05-22T10:00:53.652Z,1006.91
2019-05-22T10:01:53.644Z,1006.83
2019-05-22T10:02:53.662Z,1006.91
2019-05-22T10:03:53.612Z,1006.91
2019-05-22T10:04:53.637Z,1006.91
2019-05-22T10:05:53.747Z,1006.85
2019-05-22T10:06:53.586Z,1006.92
2019-05-22T10:08:00.556Z,1006.94
2019-05-22T10:08:54.564Z,1006.89
2019-05-22T10:09:53.588Z,1006.92
2019-05-22T10:10:53.535Z,1006.94
2019-05-22T10:11:53.529Z,1006.90
2019-05-22T10:12:53.529Z,1006.98
2019-05-22T10:13:53.509Z,1006.99
2019-05-22T10:14:53.494Z,1007.01
2019-05-22T10:15:53.517Z,1007.04
2019-05-22T10:16:53.479Z,1007.03
2019-05-22T10:17:53.459Z,1007.01
2019-05-22T10:18:53.773Z,1007.06
2019-05-22T10:19:53.451Z,1007.11
2019-05-22T10:20:53.466Z,1007.21
2019-05-22T10:21:53.425Z,1007.14
2019-05-22T10:22:53.408Z,1007.13
2019-05-22T10:23:53.433Z,1007.10
2019-05-22T10:25:13.464Z,1007.16
2019-05-22T10:25:54.408Z,1007.10
2019-05-22T10:26:53.368Z,1007.10
2019-05-22T10:27:53.366Z,1007.15
2019-05-22T10:28:53.342Z,1007.13
2019-05-22T10:29:53.330Z,1007.21
2019-05-22T10:30:54.071Z,1007.13
2019-05-22T10:31:53.375Z,1007.16
2019-05-22T10:32:53.301Z,1007.24
2019-05-22T10:33:53.300Z,1007.17
2019-05-22T10:34:53.277Z,1007.19
2019-05-22T10:35:53.269Z,1007.21
2019-05-22T10:36:53.287Z,1007.24
2019-05-22T10:37:53.246Z,1007.22
2019-05-22T10:38:53.239Z,1007.25
2019-05-22T10:39:53.229Z,1007.21
2019-05-22T10:40:53.219Z,1007.18
2019-05-22T10:41:53.241Z,1007.16
2019-05-22T10:42:53.195Z,1007.14
2019-05-22T10:43:53.184Z,1007.16
2019-05-22T10:44:53.193Z,1007.15
2019-05-22T10:45:53.163Z,1007.19
2019-05-22T10:46:53.181Z,1007.20
2019-05-22T10:47:53.136Z,1007.15
2019-05-22T10:48:53.125Z,1007.19
2019-05-22T10:49:53.113Z,1007.19
2019-05-22T10:50:53.107Z,1007.28
2019-05-22T10:51:53.097Z,1007.28
2019-05-22T10:52:54.889Z,1007.32
2019-05-22T10:53:53.083Z,1007.32
2019-05-22T10:54:56.008Z,1007.32
2019-05-22T10:55:53.089Z,1007.28
2019-05-22T10:56:53.039Z,1007.33
2019-05-22T10:57:53.031Z,1007.29
2019-05-22T10:58:53.024Z,1007.31
2019-05-22T10:59:53.014Z,1007.40
2019-05-22T11:00:53.026Z,1007.34
2019-05-22T11:01:52.985Z,1007.33
2019-05-22T11:02:53.038Z,1007.37
2019-05-22T11:03:52.970Z,1007.25
2019-05-22T11:04:52.955Z,1007.39
2019-05-22T11:06:06.388Z,1007.38
2019-05-22T11:06:53.959Z,1007.39
2019-05-22T11:07:52.958Z,1007.45
2019-05-22T11:08:52.906Z,1007.44
2019-05-22T11:09:52.898Z,1007.51
2019-05-22T11:10:52.892Z,1007.41
2019-05-22T11:11:52.941Z,1007.46
2019-05-22T11:12:52.869Z,1007.52
2019-05-22T11:14:01.271Z,1007.42
2019-05-22T11:14:53.841Z,1007.47
2019-05-22T11:15:52.873Z,1007.45
2019-05-22T11:16:52.862Z,1007.50
2019-05-22T11:17:52.814Z,1007.43
2019-05-22T11:18:52.801Z,1007.50
2019-05-22T11:19:52.813Z,1007.45
2019-05-22T11:20:52.776Z,1007.55
2019-05-22T11:21:52.767Z,1007.43
2019-05-22T11:22:52.797Z,1007.49
2019-05-22T11:23:53.374Z,1007.50
2019-05-22T11:24:52.744Z,1007.54
2019-05-22T11:25:52.762Z,1007.49
2019-05-22T11:26:52.711Z,1007.54
2019-05-22T11:27:52.725Z,1007.49
2019-05-22T11:28:52.691Z,1007.50
2019-05-22T11:29:52.683Z,1007.56
2019-05-22T11:30:52.672Z,1007.57
2019-05-22T11:31:52.666Z,1007.61
2019-05-22T11:32:52.667Z,1007.57
2019-05-22T11:33:52.634Z,1007.59
2019-05-22T11:34:52.633Z,1007.66
2019-05-22T11:35:52.621Z,1007.62
2019-05-22T11:36:52.608Z,1007.64
2019-05-22T11:37:52.632Z,1007.59
2019-05-22T11:38:52.585Z,1007.57
2019-05-22T11:39:52.603Z,1007.68
2019-05-22T11:40:52.564Z,1007.67
2019-05-22T11:41:52.545Z,1007.70
2019-05-22T11:42:52.544Z,1007.67
2019-05-22T11:43:52.533Z,1007.67
2019-05-22T11:44:52.617Z,1007.68
2019-05-22T11:45:52.514Z,1007.68
2019-05-22T11:46:52.496Z,1007.66
2019-05-22T11:47:52.545Z,1007.74
2019-05-22T11:48:52.479Z,1007.69
2019-05-22T11:49:52.471Z,1007.71
2019-05-22T11:50:52.473Z,1007.72
2019-05-22T11:51:52.437Z,1007.77
2019-05-22T11:52:52.427Z,1007.64
2019-05-22T11:54:07.989Z,1007.71
2019-05-22T11:54:53.412Z,1007.72
2019-05-22T11:55:52.438Z,1007.75
2019-05-22T11:56:52.392Z,1007.76
2019-05-22T11:57:52.382Z,1007.76
2019-05-22T11:58:52.368Z,1007.73
2019-05-22T11:59:52.356Z,1007.75
2019-05-22T12:00:52.495Z,1007.75
2019-05-22T12:01:52.332Z,1007.74
2019-05-22T12:02:52.613Z,1007.71
2019-05-22T12:03:52.342Z,1007.76
2019-05-22T12:04:52.297Z,1007.72
2019-05-22T12:05:52.291Z,1007.75